Time;durP1;ratioP1;P1;durP2;ratioP2;P2;SDS_P1;SDS_P2;PMS_P1;PMS_P2;Temp;Humidity;BMP_temperature;BMP_pressure;BME280_temperature;BME280_humidity;BME280_pressure;Samples;Min_cycle;Max_cycle;Signal;HPM_P1;HPM_P2
2023/10/29 00:03:24;;;;;;;3.40;2.28;;;;;;;;;;10257262;28;20080;-64
2023/10/29 00:08:24;;;;;;;6.20;2.70;;;;;;;;;;10254965;28;20487;-65
2023/10/29 00:13:25;;;;;;;6.88;2.35;;;;;;;;;;10256519;28;20075;-65
2023/10/29 00:18:23;;;;;;;6.20;2.33;;;;;;;;;;10255970;28;20466;-64
2023/10/29 00:23:21;;;;;;;4.10;2.42;;;;;;;;;;10257092;28;20073;-64
2023/10/29 00:28:21;;;;;;;5.63;2.45;;;;;;;;;;10251312;28;20102;-65
2023/10/29 00:33:19;;;;;;;3.38;2.35;;;;;;;;;;10254414;28;20080;-64
2023/10/29 00:38:17;;;;;;;3.72;2.17;;;;;;;;;;10256503;28;20416;-63
2023/10/29 00:43:16;;;;;;;4.80;2.42;;;;;;;;;;10253772;28;20064;-64
2023/10/29 00:48:15;;;;;;;4.18;2.10;;;;;;;;;;10251441;28;20650;-63
2023/10/29 00:53:14;;;;;;;3.58;2.28;;;;;;;;;;10254794;28;20088;-64
2023/10/29 00:58:13;;;;;;;4.13;2.38;;;;;;;;;;10254714;28;20061;-64
2023/10/29 01:03:11;;;;;;;5.60;2.00;;;;;;;;;;10255554;28;20065;-64
2023/10/29 01:08:11;;;;;;;6.45;2.53;;;;;;;;;;10250846;28;20041;-64
2023/10/29 01:13:11;;;;;;;4.80;2.22;;;;;;;;;;10261392;28;20089;-63
2023/10/29 01:18:09;;;;;;;4.72;2.60;;;;;;;;;;10263275;28;20076;-64
2023/10/29 01:23:08;;;;;;;5.22;2.40;;;;;;;;;;10263776;28;20065;-63
2023/10/29 01:28:07;;;;;;;4.35;2.28;;;;;;;;;;10262352;28;20077;-64
2023/10/29 01:33:06;;;;;;;7.38;2.10;;;;;;;;;;10264369;28;20076;-64
2023/10/29 01:44:18;;;;;;;3.72;2.33;;;;;;;;;;10259797;28;20041;-64
2023/10/29 01:49:16;;;;;;;4.85;2.10;;;;;;;;;;10264238;28;20084;-64
2023/10/29 01:54:14;;;;;;;3.15;1.80;;;;;;;;;;10261386;28;20076;-64
2023/10/29 01:59:13;;;;;;;5.30;2.13;;;;;;;;;;10266408;28;20155;-64
2023/10/29 02:04:12;;;;;;;3.22;1.60;;;;;;;;;;10274106;28;20463;-64
2023/10/29 02:09:12;;;;;;;5.18;2.08;;;;;;;;;;10260539;28;20040;-64
2023/10/29 02:14:11;;;;;;;4.63;2.22;;;;;;;;;;10276310;28;20073;-64
2023/10/29 02:19:09;;;;;;;3.83;2.25;;;;;;;;;;10260917;28;20102;-65
2023/10/29 02:24:09;;;;;;;4.38;2.10;;;;;;;;;;10258616;28;20076;-65
2023/10/29 02:29:07;;;;;;;4.32;2.10;;;;;;;;;;10254565;28;20535;-65
2023/10/29 02:34:07;;;;;;;2.85;1.98;;;;;;;;;;10260402;28;20517;-65
2023/10/29 02:39:06;;;;;;;4.63;2.50;;;;;;;;;;10260183;28;20064;-65
2023/10/29 02:44:06;;;;;;;2.47;1.63;;;;;;;;;;10273378;28;20037;-64
2023/10/29 02:49:04;;;;;;;3.13;1.80;;;;;;;;;;10258636;28;20479;-64
2023/10/29 02:54:02;;;;;;;4.72;2.20;;;;;;;;;;10273168;28;20081;-63
2023/10/29 02:59:01;;;;;;;5.93;3.95;;;;;;;;;;10258892;28;20072;-64
2023/10/29 03:04:02;;;;;;;4.18;2.40;;;;;;;;;;10270713;28;20073;-64
2023/10/29 03:09:01;;;;;;;7.47;2.70;;;;;;;;;;10259834;28;20064;-64
2023/10/29 03:13:59;;;;;;;8.23;2.13;;;;;;;;;;10256419;28;20099;-65
2023/10/29 03:18:58;;;;;;;3.22;2.13;;;;;;;;;;10255096;28;20075;-64
2023/10/29 03:23:57;;;;;;;4.72;2.80;;;;;;;;;;10254002;28;20069;-64
2023/10/29 03:28:56;;;;;;;4.35;2.53;;;;;;;;;;10257149;28;20083;-64
2023/10/29 03:33:54;;;;;;;4.78;3.03;;;;;;;;;;10258850;28;20640;-64
2023/10/29 03:38:52;;;;;;;3.83;2.28;;;;;;;;;;10258038;28;20081;-64
2023/10/29 03:43:52;;;;;;;4.63;3.08;;;;;;;;;;10258658;28;20077;-64
2023/10/29 03:48:53;;;;;;;6.40;2.75;;;;;;;;;;10256323;28;20476;-64
2023/10/29 03:53:51;;;;;;;6.15;2.55;;;;;;;;;;10256852;28;20077;-65
2023/10/29 03:58:50;;;;;;;6.18;2.92;;;;;;;;;;10257753;28;20072;-64
2023/10/29 04:03:50;;;;;;;5.72;2.95;;;;;;;;;;10258855;28;20080;-65
2023/10/29 04:08:48;;;;;;;6.53;2.60;;;;;;;;;;10262275;28;20069;-65
2023/10/29 04:13:48;;;;;;;6.20;3.28;;;;;;;;;;10257626;28;20092;-65
2023/10/29 04:18:46;;;;;;;5.85;2.60;;;;;;;;;;10252654;28;20061;-64
2023/10/29 04:23:45;;;;;;;6.50;3.13;;;;;;;;;;10254037;28;20494;-65
2023/10/29 04:28:44;;;;;;;4.18;2.50;;;;;;;;;;10254925;28;20068;-64
2023/10/29 04:33:45;;;;;;;5.13;2.90;;;;;;;;;;10251250;28;20516;-64
2023/10/29 04:38:43;;;;;;;3.83;2.60;;;;;;;;;;10254827;28;20065;-64
2023/10/29 04:43:42;;;;;;;6.38;3.00;;;;;;;;;;10255937;28;20065;-64
2023/10/29 04:48:41;;;;;;;7.82;3.00;;;;;;;;;;10255241;28;20411;-64
2023/10/29 04:53:39;;;;;;;5.13;3.35;;;;;;;;;;10255172;28;20550;-64
2023/10/29 04:58:38;;;;;;;7.40;2.95;;;;;;;;;;10255036;28;20080;-64
2023/10/29 05:03:38;;;;;;;7.47;3.45;;;;;;;;;;10255999;28;20077;-64
2023/10/29 05:08:36;;;;;;;3.78;2.38;;;;;;;;;;10255155;28;20076;-64
2023/10/29 05:13:34;;;;;;;3.92;2.67;;;;;;;;;;10255092;28;20088;-64
2023/10/29 05:18:33;;;;;;;6.50;3.42;;;;;;;;;;10254834;28;20076;-63
2023/10/29 05:23:32;;;;;;;3.65;2.35;;;;;;;;;;10255799;28;20075;-64
2023/10/29 05:28:31;;;;;;;6.20;3.22;;;;;;;;;;10249088;28;20069;-64
2023/10/29 05:33:29;;;;;;;5.93;3.33;;;;;;;;;;10254193;28;20084;-63
2023/10/29 05:38:27;;;;;;;5.15;3.00;;;;;;;;;;10250801;28;20076;-63
2023/10/29 05:43:27;;;;;;;6.40;3.40;;;;;;;;;;10252873;28;20770;-63
2023/10/29 05:48:25;;;;;;;8.48;3.33;;;;;;;;;;10256509;28;20075;-64
2023/10/29 05:53:23;;;;;;;5.03;3.28;;;;;;;;;;10258907;28;20475;-64
2023/10/29 05:58:23;;;;;;;3.67;2.83;;;;;;;;;;10262707;28;20505;-64
2023/10/29 06:03:23;;;;;;;4.38;2.88;;;;;;;;;;10257873;28;20067;-64
2023/10/29 06:08:21;;;;;;;6.40;3.00;;;;;;;;;;10256432;28;20080;-64
2023/10/29 06:13:20;;;;;;;5.85;3.28;;;;;;;;;;10254254;28;20085;-65
2023/10/29 06:18:18;;;;;;;9.27;3.58;;;;;;;;;;10251020;28;20088;-64
2023/10/29 06:23:18;;;;;;;7.60;3.28;;;;;;;;;;10255298;28;20068;-63
2023/10/29 06:28:16;;;;;;;6.50;2.78;;;;;;;;;;10259276;28;20073;-64
2023/10/29 06:33:14;;;;;;;7.10;3.22;;;;;;;;;;10257521;28;20061;-64
2023/10/29 06:38:15;;;;;;;6.72;3.55;;;;;;;;;;10258981;28;20088;-64
2023/10/29 06:43:14;;;;;;;7.78;3.25;;;;;;;;;;10259225;28;20471;-64
2023/10/29 06:48:12;;;;;;;5.70;2.63;;;;;;;;;;10260286;28;20081;-64
2023/10/29 06:53:11;;;;;;;3.65;2.38;;;;;;;;;;10259315;28;20080;-65
2023/10/29 06:58:09;;;;;;;3.30;2.35;;;;;;;;;;10260645;28;20077;-65
2023/10/29 07:03:09;;;;;;;4.97;3.33;;;;;;;;;;10257862;28;20064;-65
2023/10/29 07:08:07;;;;;;;6.57;2.83;;;;;;;;;;10256717;28;20073;-64
2023/10/29 07:13:05;;;;;;;5.30;2.80;;;;;;;;;;10258815;28;20069;-66
2023/10/29 07:18:05;;;;;;;8.23;3.22;;;;;;;;;;10258220;28;20080;-66
2023/10/29 07:23:05;;;;;;;5.13;3.20;;;;;;;;;;10258373;28;20084;-65
2023/10/29 07:28:03;;;;;;;4.35;2.97;;;;;;;;;;10258562;28;20087;-65
2023/10/29 07:33:01;;;;;;;4.30;2.70;;;;;;;;;;10257451;28;20077;-65
2023/10/29 07:38:00;;;;;;;6.63;2.75;;;;;;;;;;10255797;28;20095;-67
2023/10/29 07:42:59;;;;;;;4.00;2.95;;;;;;;;;;10256904;28;20068;-66
2023/10/29 07:47:58;;;;;;;7.95;3.47;;;;;;;;;;10258227;28;20522;-65
2023/10/29 07:52:56;;;;;;;9.45;3.75;;;;;;;;;;10256296;28;20087;-65
2023/10/29 07:57:55;;;;;;;4.80;2.55;;;;;;;;;;10257558;28;20659;-65
2023/10/29 08:02:54;;;;;;;4.47;3.00;;;;;;;;;;10254230;28;20480;-65
2023/10/29 08:07:53;;;;;;;5.40;3.95;;;;;;;;;;10256134;28;20084;-65
2023/10/29 08:12:51;;;;;;;6.82;2.80;;;;;;;;;;10254867;28;20079;-65
2023/10/29 08:17:49;;;;;;;6.25;3.50;;;;;;;;;;10256424;28;20052;-64
2023/10/29 08:22:49;;;;;;;2.83;2.20;;;;;;;;;;10251318;28;20077;-65
2023/10/29 08:27:47;;;;;;;3.08;2.05;;;;;;;;;;10254959;28;20080;-65
2023/10/29 08:32:45;;;;;;;2.95;2.38;;;;;;;;;;10256377;28;20104;-65
2023/10/29 08:37:43;;;;;;;6.47;3.17;;;;;;;;;;10255166;28;20084;-65
2023/10/29 08:42:45;;;;;;;8.07;2.80;;;;;;;;;;10256281;28;20541;-65
2023/10/29 08:47:43;;;;;;;3.22;2.20;;;;;;;;;;10255452;28;20084;-65
2023/10/29 08:52:41;;;;;;;3.65;2.08;;;;;;;;;;10249949;28;20069;-65
2023/10/29 08:57:39;;;;;;;3.75;2.38;;;;;;;;;;10254206;28;20485;-64
2023/10/29 09:02:39;;;;;;;7.07;2.83;;;;;;;;;;10255395;28;20087;-64
2023/10/29 09:07:37;;;;;;;12.40;3.63;;;;;;;;;;10254521;28;20481;-64
2023/10/29 09:12:36;;;;;;;5.20;2.72;;;;;;;;;;10254509;28;20072;-64
2023/10/29 09:17:35;;;;;;;5.90;3.20;;;;;;;;;;10255251;28;20096;-64
2023/10/29 09:22:34;;;;;;;3.53;3.00;;;;;;;;;;10255288;28;20069;-64
2023/10/29 09:27:33;;;;;;;8.60;3.03;;;;;;;;;;10254061;28;20072;-64
2023/10/29 09:32:31;;;;;;;7.25;5.03;;;;;;;;;;10260336;28;20080;-64
2023/10/29 09:37:31;;;;;;;6.43;3.88;;;;;;;;;;10262725;28;20065;-64
2023/10/29 09:42:34;;;;;;;10.55;3.78;;;;;;;;;;10263084;28;20084;-64
2023/10/29 09:47:32;;;;;;;5.15;2.67;;;;;;;;;;10260755;28;20119;-65
2023/10/29 09:52:33;;;;;;;3.35;2.20;;;;;;;;;;10255322;28;20068;-64
2023/10/29 09:57:33;;;;;;;9.50;3.20;;;;;;;;;;10257404;28;20075;-65
2023/10/29 10:02:31;;;;;;;3.40;2.47;;;;;;;;;;10258040;28;20076;-64
2023/10/29 10:07:30;;;;;;;11.73;3.50;;;;;;;;;;10257009;28;20069;-64
2023/10/29 10:12:28;;;;;;;5.65;3.08;;;;;;;;;;10256558;28;20486;-65
2023/10/29 10:17:29;;;;;;;6.13;2.38;;;;;;;;;;10260525;28;20081;-65
2023/10/29 10:22:34;;;;;;;3.92;2.45;;;;;;;;;;10260392;28;20050;-64
2023/10/29 10:27:47;;;;;;;5.35;3.33;;;;;;;;;;10260372;28;20087;-64
2023/10/29 10:32:47;;;;;;;7.65;2.58;;;;;;;;;;10257428;28;20075;-65
2023/10/29 10:37:53;;;;;;;11.05;3.42;;;;;;;;;;10260270;28;20507;-65
2023/10/29 10:42:55;;;;;;;5.90;4.43;;;;;;;;;;10260481;28;20085;-65
2023/10/29 10:47:57;;;;;;;5.70;3.58;;;;;;;;;;10261265;28;20087;-66
2023/10/29 10:52:56;;;;;;;7.03;4.00;;;;;;;;;;10260781;28;20083;-65
2023/10/29 10:57:56;;;;;;;4.88;3.45;;;;;;;;;;10259345;28;20610;-66
2023/10/29 11:02:56;;;;;;;5.45;3.17;;;;;;;;;;10258737;28;20475;-65
2023/10/29 11:07:55;;;;;;;3.95;2.88;;;;;;;;;;10259983;28;20084;-64
2023/10/29 11:12:56;;;;;;;4.30;2.97;;;;;;;;;;10257612;28;20347;-65
2023/10/29 11:17:59;;;;;;;3.97;2.90;;;;;;;;;;10257605;28;20099;-64
2023/10/29 11:23:06;;;;;;;5.90;3.60;;;;;;;;;;10259305;28;20116;-66
2023/10/29 11:28:05;;;;;;;8.38;3.10;;;;;;;;;;10256635;28;20084;-65
2023/10/29 11:33:18;;;;;;;4.65;4.13;;;;;;;;;;10258173;28;20077;-64
2023/10/29 11:38:39;;;;;;;10.13;5.85;;;;;;;;;;10253851;28;20084;-64
2023/10/29 11:43:37;;;;;;;9.45;5.85;;;;;;;;;;10251986;28;20080;-66
2023/10/29 11:48:57;;;;;;;8.48;5.07;;;;;;;;;;10257203;28;20077;-65
2023/10/29 11:53:57;;;;;;;7.53;5.00;;;;;;;;;;10257291;28;20081;-65
2023/10/29 11:59:05;;;;;;;11.55;8.63;;;;;;;;;;10253830;28;20160;-66
2023/10/29 12:04:05;;;;;;;10.07;8.93;;;;;;;;;;10257633;28;20087;-65
2023/10/29 12:09:13;;;;;;;8.40;4.95;;;;;;;;;;10256678;28;20498;-65
2023/10/29 12:14:12;;;;;;;5.68;3.75;;;;;;;;;;10256127;28;20085;-64
2023/10/29 12:19:11;;;;;;;7.93;4.55;;;;;;;;;;10270206;28;20038;-65
2023/10/29 12:24:10;;;;;;;11.18;4.70;;;;;;;;;;10254114;28;20064;-65
2023/10/29 12:29:09;;;;;;;7.15;4.78;;;;;;;;;;10256142;28;20498;-65
2023/10/29 12:34:07;;;;;;;9.68;4.57;;;;;;;;;;10255792;28;20041;-65
2023/10/29 12:39:07;;;;;;;7.95;5.45;;;;;;;;;;10253897;28;20075;-65
2023/10/29 12:44:15;;;;;;;8.18;4.55;;;;;;;;;;10256360;28;20502;-65
2023/10/29 12:49:13;;;;;;;6.72;5.00;;;;;;;;;;10253982;28;20084;-65
2023/10/29 12:54:15;;;;;;;10.07;5.45;;;;;;;;;;10255440;28;20080;-65
2023/10/29 12:59:13;;;;;;;7.97;5.15;;;;;;;;;;10255667;28;20087;-65
2023/10/29 13:04:11;;;;;;;6.50;4.70;;;;;;;;;;10256288;28;20068;-65
2023/10/29 13:09:11;;;;;;;7.13;3.90;;;;;;;;;;10262983;28;20068;-64
2023/10/29 13:14:11;;;;;;;7.63;4.03;;;;;;;;;;10259884;28;20084;-64
2023/10/29 13:19:10;;;;;;;5.75;4.20;;;;;;;;;;10261747;28;20084;-65
2023/10/29 13:24:09;;;;;;;9.73;4.70;;;;;;;;;;10263586;28;20099;-65
2023/10/29 13:29:07;;;;;;;6.07;3.85;;;;;;;;;;10262101;28;20078;-65
2023/10/29 13:34:08;;;;;;;8.40;4.70;;;;;;;;;;10263329;28;20091;-65
2023/10/29 13:39:06;;;;;;;5.25;3.70;;;;;;;;;;10263365;28;20073;-64
2023/10/29 13:44:05;;;;;;;7.90;4.25;;;;;;;;;;10259703;28;20069;-65
2023/10/29 13:49:03;;;;;;;7.10;4.90;;;;;;;;;;10263130;28;20076;-66
2023/10/29 13:54:03;;;;;;;7.82;3.85;;;;;;;;;;10260588;28;20080;-65
2023/10/29 13:59:01;;;;;;;6.57;3.72;;;;;;;;;;10260576;28;20068;-64
2023/10/29 14:04:00;;;;;;;7.95;4.07;;;;;;;;;;10262013;28;20068;-65
2023/10/29 14:08:58;;;;;;;9.23;3.70;;;;;;;;;;10257846;28;20076;-65
2023/10/29 14:13:58;;;;;;;8.93;3.25;;;;;;;;;;10261101;28;20079;-65
2023/10/29 14:18:56;;;;;;;11.73;3.92;;;;;;;;;;10260819;28;20079;-65
2023/10/29 14:23:56;;;;;;;9.85;3.70;;;;;;;;;;10274371;28;20459;-65
2023/10/29 14:28:55;;;;;;;11.60;4.45;;;;;;;;;;10271489;28;20079;-67
2023/10/29 14:33:54;;;;;;;7.35;3.35;;;;;;;;;;10262459;28;20083;-65
2023/10/29 14:38:52;;;;;;;10.65;3.30;;;;;;;;;;10264613;28;20071;-64
2023/10/29 14:43:51;;;;;;;8.13;3.17;;;;;;;;;;10266571;28;20499;-64
2023/10/29 14:48:49;;;;;;;8.57;2.97;;;;;;;;;;10259192;28;20072;-65
2023/10/29 14:53:49;;;;;;;6.05;3.35;;;;;;;;;;10259143;28;20132;-65
2023/10/29 14:58:47;;;;;;;5.38;3.63;;;;;;;;;;10262452;28;20076;-65
2023/10/29 15:03:45;;;;;;;7.68;3.60;;;;;;;;;;10255408;28;20110;-65
2023/10/29 15:08:44;;;;;;;8.60;3.55;;;;;;;;;;10255142;28;20076;-64
2023/10/29 15:13:43;;;;;;;10.48;3.90;;;;;;;;;;10252805;28;20077;-66
2023/10/29 15:18:45;;;;;;;13.40;4.50;;;;;;;;;;10256150;28;20391;-65
2023/10/29 15:23:43;;;;;;;8.00;4.22;;;;;;;;;;10256917;28;20073;-65
2023/10/29 15:28:41;;;;;;;6.55;3.85;;;;;;;;;;10257412;28;20073;-65
2023/10/29 15:33:41;;;;;;;7.25;3.95;;;;;;;;;;10258739;28;20092;-64
2023/10/29 15:38:39;;;;;;;5.32;3.40;;;;;;;;;;10257355;28;20080;-64
2023/10/29 15:43:38;;;;;;;8.85;3.22;;;;;;;;;;10257256;28;20395;-64
2023/10/29 15:48:37;;;;;;;7.60;3.38;;;;;;;;;;10259943;28;20081;-64
2023/10/29 15:53:37;;;;;;;10.68;3.97;;;;;;;;;;10256808;28;20077;-65
2023/10/29 15:58:35;;;;;;;6.38;3.50;;;;;;;;;;10257387;28;20080;-65
2023/10/29 16:03:33;;;;;;;9.68;3.83;;;;;;;;;;10256713;28;20068;-65
2023/10/29 16:08:32;;;;;;;8.77;3.58;;;;;;;;;;10257336;28;20068;-65
2023/10/29 16:13:32;;;;;;;5.82;3.15;;;;;;;;;;10252722;28;20093;-65
2023/10/29 16:18:31;;;;;;;7.70;4.07;;;;;;;;;;10256596;28;20064;-65
2023/10/29 16:23:30;;;;;;;7.45;4.25;;;;;;;;;;10271215;28;20075;-64
2023/10/29 16:28:28;;;;;;;6.78;3.65;;;;;;;;;;10254852;28;20068;-65
2023/10/29 16:33:28;;;;;;;9.07;3.35;;;;;;;;;;10251996;28;20056;-64
2023/10/29 16:38:28;;;;;;;8.82;3.38;;;;;;;;;;10256425;28;20068;-65
2023/10/29 16:43:27;;;;;;;9.05;3.60;;;;;;;;;;10254774;28;20079;-65
2023/10/29 16:48:26;;;;;;;18.23;10.75;;;;;;;;;;10257313;28;20073;-65
2023/10/29 16:53:25;;;;;;;12.80;9.00;;;;;;;;;;10257644;28;20571;-65
2023/10/29 16:58:24;;;;;;;18.23;13.95;;;;;;;;;;10252040;28;20447;-65
2023/10/29 17:03:22;;;;;;;16.58;11.25;;;;;;;;;;10259082;28;20072;-64
2023/10/29 17:08:20;;;;;;;8.30;4.63;;;;;;;;;;10253829;28;20064;-64
2023/10/29 17:13:20;;;;;;;5.38;3.58;;;;;;;;;;10256859;28;20076;-65
2023/10/29 17:18:18;;;;;;;7.20;3.65;;;;;;;;;;10249325;28;20068;-64
2023/10/29 17:23:17;;;;;;;7.43;4.07;;;;;;;;;;10256086;28;20537;-65
2023/10/29 17:28:15;;;;;;;6.55;3.47;;;;;;;;;;10254360;28;20084;-64
2023/10/29 17:33:15;;;;;;;4.45;2.90;;;;;;;;;;10260089;28;20073;-65
2023/10/29 17:38:14;;;;;;;5.43;2.85;;;;;;;;;;10256417;28;20069;-65
2023/10/29 17:43:13;;;;;;;5.78;2.45;;;;;;;;;;10255010;28;20083;-65
2023/10/29 17:48:12;;;;;;;5.57;3.15;;;;;;;;;;10260311;28;20073;-66
2023/10/29 17:53:12;;;;;;;9.10;2.95;;;;;;;;;;10259964;28;20072;-65
2023/10/29 17:58:10;;;;;;;4.15;2.53;;;;;;;;;;10264396;28;20080;-64
2023/10/29 18:03:08;;;;;;;4.60;3.13;;;;;;;;;;10266397;28;20077;-65
2023/10/29 18:08:07;;;;;;;4.53;2.67;;;;;;;;;;10262441;28;20072;-64
2023/10/29 18:13:07;;;;;;;5.80;2.70;;;;;;;;;;10261601;28;20065;-64
2023/10/29 18:18:06;;;;;;;4.53;2.90;;;;;;;;;;10260451;28;20076;-65
2023/10/29 18:23:04;;;;;;;5.65;3.33;;;;;;;;;;10264161;28;20077;-68
2023/10/29 18:28:03;;;;;;;7.15;3.30;;;;;;;;;;10259847;28;20065;-65
2023/10/29 18:33:02;;;;;;;7.20;3.00;;;;;;;;;;10264842;28;20077;-65
2023/10/29 18:38:02;;;;;;;4.82;2.60;;;;;;;;;;10266977;28;20057;-65
2023/10/29 18:43:01;;;;;;;5.85;3.55;;;;;;;;;;10255901;28;20065;-66
2023/10/29 18:48:00;;;;;;;8.45;2.65;;;;;;;;;;10253074;28;20080;-64
2023/10/29 18:53:00;;;;;;;5.20;2.40;;;;;;;;;;10256917;28;20083;-65
2023/10/29 18:57:58;;;;;;;5.85;3.05;;;;;;;;;;10258907;28;20076;-66
2023/10/29 19:02:56;;;;;;;8.82;2.90;;;;;;;;;;10259669;28;20522;-65
2023/10/29 19:07:55;;;;;;;4.47;2.20;;;;;;;;;;10273130;28;20423;-64
2023/10/29 19:12:54;;;;;;;4.25;2.17;;;;;;;;;;10259525;28;20085;-65
2023/10/29 19:17:53;;;;;;;7.18;2.40;;;;;;;;;;10258565;28;20077;-64
2023/10/29 19:22:51;;;;;;;6.57;2.80;;;;;;;;;;10258929;28;20092;-66
2023/10/29 19:27:50;;;;;;;3.05;2.33;;;;;;;;;;10257980;28;20077;-65
2023/10/29 19:32:49;;;;;;;4.90;3.22;;;;;;;;;;10255861;28;20080;-65
2023/10/29 19:37:48;;;;;;;4.93;2.85;;;;;;;;;;10252041;28;20080;-64
2023/10/29 19:42:46;;;;;;;5.68;3.38;;;;;;;;;;10257550;28;20068;-64
2023/10/29 19:47:44;;;;;;;4.15;2.78;;;;;;;;;;10258042;28;20052;-65
2023/10/29 19:52:44;;;;;;;4.82;2.65;;;;;;;;;;10256960;28;20069;-64
2023/10/29 19:57:45;;;;;;;3.83;2.50;;;;;;;;;;10256446;28;20080;-64
2023/10/29 20:02:43;;;;;;;5.57;2.92;;;;;;;;;;10252384;28;20510;-65
2023/10/29 20:07:42;;;;;;;7.35;3.05;;;;;;;;;;10259235;28;20160;-64
2023/10/29 20:12:42;;;;;;;3.83;2.75;;;;;;;;;;10259728;28;20068;-64
2023/10/29 20:17:41;;;;;;;5.03;2.28;;;;;;;;;;10255984;28;20095;-66
2023/10/29 20:22:39;;;;;;;4.70;2.55;;;;;;;;;;10261249;28;20103;-64
2023/10/29 20:27:37;;;;;;;2.90;2.08;;;;;;;;;;10250989;28;20084;-65
2023/10/29 20:32:37;;;;;;;4.95;2.22;;;;;;;;;;10254628;28;20072;-64
2023/10/29 20:37:35;;;;;;;4.35;2.13;;;;;;;;;;10256505;28;20075;-65
2023/10/29 20:42:35;;;;;;;6.20;2.65;;;;;;;;;;10255123;28;20076;-64
2023/10/29 20:47:33;;;;;;;3.47;2.08;;;;;;;;;;10255950;28;20069;-64
2023/10/29 20:52:33;;;;;;;3.83;2.40;;;;;;;;;;10250989;28;20498;-65
2023/10/29 20:57:31;;;;;;;9.98;4.38;;;;;;;;;;10251720;28;20073;-65
2023/10/29 21:02:30;;;;;;;3.38;2.30;;;;;;;;;;10251211;28;20100;-65
2023/10/29 21:07:28;;;;;;;4.57;2.67;;;;;;;;;;10252563;28;20083;-64
2023/10/29 21:12:27;;;;;;;5.53;2.47;;;;;;;;;;10253439;28;20069;-65
2023/10/29 21:17:26;;;;;;;3.45;2.33;;;;;;;;;;10251271;28;20452;-65
2023/10/29 21:22:24;;;;;;;4.68;2.00;;;;;;;;;;10254863;28;20073;-65
2023/10/29 21:27:23;;;;;;;5.47;2.08;;;;;;;;;;10258615;28;20076;-65
2023/10/29 21:32:27;;;;;;;3.03;1.80;;;;;;;;;;10263898;28;20499;-65
2023/10/29 21:37:25;;;;;;;3.60;2.20;;;;;;;;;;10261481;28;20072;-65
2023/10/29 21:42:24;;;;;;;3.22;1.90;;;;;;;;;;10263657;28;20081;-64
2023/10/29 21:47:23;;;;;;;4.88;2.08;;;;;;;;;;10264299;28;20068;-64
2023/10/29 21:52:23;;;;;;;3.67;2.00;;;;;;;;;;10261040;28;20076;-64
2023/10/29 21:57:22;;;;;;;4.47;2.35;;;;;;;;;;10261792;28;20463;-64
2023/10/29 22:02:20;;;;;;;4.18;2.10;;;;;;;;;;10261608;28;20061;-64
2023/10/29 22:07:18;;;;;;;4.90;2.55;;;;;;;;;;10261842;28;20077;-64
2023/10/29 22:12:18;;;;;;;3.63;2.03;;;;;;;;;;10261180;28;20089;-65
2023/10/29 22:17:16;;;;;;;2.63;1.90;;;;;;;;;;10261015;28;20085;-64
2023/10/29 22:22:16;;;;;;;6.45;2.05;;;;;;;;;;10261132;28;20073;-64
2023/10/29 22:27:15;;;;;;;4.78;2.03;;;;;;;;;;10261584;28;20080;-64
2023/10/29 22:32:15;;;;;;;7.13;2.40;;;;;;;;;;10258761;28;20095;-64
2023/10/29 22:37:13;;;;;;;2.28;1.83;;;;;;;;;;10258238;28;20080;-65
2023/10/29 22:42:13;;;;;;;5.10;2.17;;;;;;;;;;10260704;28;20073;-65
2023/10/29 22:47:12;;;;;;;3.70;1.90;;;;;;;;;;10259049;28;20069;-65
2023/10/29 22:52:12;;;;;;;4.05;2.10;;;;;;;;;;10259248;28;20084;-65
2023/10/29 22:57:10;;;;;;;7.15;2.35;;;;;;;;;;10260230;28;20080;-64
2023/10/29 23:02:08;;;;;;;4.55;2.35;;;;;;;;;;10259859;28;20099;-65
2023/10/29 23:07:07;;;;;;;4.25;2.15;;;;;;;;;;10257957;28;20077;-65
2023/10/29 23:12:07;;;;;;;3.47;2.17;;;;;;;;;;10257521;28;20085;-64
2023/10/29 23:17:07;;;;;;;2.88;2.25;;;;;;;;;;10259631;28;20088;-64
2023/10/29 23:22:05;;;;;;;4.00;1.88;;;;;;;;;;10272073;28;20072;-64
2023/10/29 23:27:04;;;;;;;2.20;1.88;;;;;;;;;;10257188;28;20064;-64
2023/10/29 23:32:05;;;;;;;3.72;2.05;;;;;;;;;;10256667;28;20101;-65
2023/10/29 23:37:03;;;;;;;5.18;3.10;;;;;;;;;;10254692;28;20065;-64
2023/10/29 23:42:01;;;;;;;6.95;2.95;;;;;;;;;;10254620;28;20069;-64
2023/10/29 23:47:00;;;;;;;6.80;3.13;;;;;;;;;;10258766;28;20072;-64
2023/10/29 23:51:59;;;;;;;4.03;2.50;;;;;;;;;;10256690;28;20096;-63
2023/10/29 23:56:58;;;;;;;4.82;2.47;;;;;;;;;;10263927;28;20088;-64
